Magrathea — WDG7506 — position and weather

sailwx.info

Track history (hours):
 
Tides and Currents Weather Stations Pressure Air Temp Water Temp Dewpoint Dewpoint Depression Visibility Wind Speed Wind Dir Waves Ship Positions

Magrathea

Owner: Quackenbush, Doug C, Poway, CA. More information available from US FCC via Universal Licensing System and Coast Guard Vessel Documentation Center.

Last reported at 2018-Jan-02 10:09 UTC. Time now 2018-Jan-19 01:51 UTC.
Position N 40°48' W 073°59'.
Warning: this ship's position is 16 days out of date.

Length 30 m; draft 3.5 m.

Type: Tug. MMSI: 367568020.

Date/timePositionNaut miles runAvg speedWind from/ knotsBaromVisibWave heightAir tempDewpointWater temp
2018-Jan-02 10:09N 40°48' W 073°59'1 6.1
2018-Jan-02 10:00N 40°47' W 073°60'3 5.3
2018-Jan-02 09:31N 40°45' W 074°01'5 5.0
2018-Jan-02 08:30N 40°40' W 074°02'0 0.4
2018-Jan-02 08:00N 40°39' W 074°02'0 0.1
2018-Jan-02 07:30N 40°39' W 074°02'1 1.9
2018-Jan-02 07:00N 40°39' W 074°03'3 1.4
2018-Jan-02 05:11N 40°39' W 074°07'5 7.6
2018-Jan-02 04:30N 40°41' W 074°01'  
2017-Dec-29 19:22N 40°48' W 073°54'3 7.8
2017-Dec-29 18:57N 40°46' W 073°57'3 6.5
2017-Dec-29 18:30N 40°43' W 073°58'3 5.8
2017-Dec-29 18:00N 40°41' W 074°01'2 3.3
2017-Dec-29 17:30N 40°39' W 074°02'0 0.1
2017-Dec-29 17:00N 40°39' W 074°02'0 0.0
2017-Dec-29 16:26N 40°39' W 074°02'0 0.0
2017-Dec-29 16:00N 40°39' W 074°02'0 0.0
2017-Dec-29 15:30N 40°39' W 074°02'0 0.0
2017-Dec-29 14:59N 40°39' W 074°02'0 0.0
2017-Dec-29 14:29N 40°39' W 074°02'0 0.0
2017-Dec-29 14:00N 40°39' W 074°02'0 0.0
2017-Dec-29 13:30N 40°39' W 074°02'2 3.5
2017-Dec-29 13:00N 40°41' W 074°02'3 5.1
2017-Dec-29 12:30N 40°44' W 074°01'2 4.4
2017-Dec-29 12:00N 40°46' W 074°01'  
Track history (hours):
 
Tides and Currents Weather Stations Pressure Air Temp Water Temp Dewpoint Dewpoint Depression Visibility Wind Speed Wind Dir Waves Ship Positions

Magrathea

Owner: Quackenbush, Doug C, Poway, CA. More information available from US FCC via Universal Licensing System and Coast Guard Vessel Documentation Center.

Last reported at 2018-Jan-02 10:09 UTC. Time now 2018-Jan-19 01:51 UTC.
Position N 40°48' W 073°59'.
Warning: this ship's position is 16 days out of date.

Length 30 m; draft 3.5 m.

Type: Tug. MMSI: 367568020.

Date/timePositionNaut miles runAvg speedWind from/ knotsBaromVisibWave heightAir tempDewpointWater temp
2018-Jan-02 10:09N 40°48' W 073°59'1 6.1
2018-Jan-02 10:00N 40°47' W 073°60'3 5.3
2018-Jan-02 09:31N 40°45' W 074°01'5 5.0
2018-Jan-02 08:30N 40°40' W 074°02'0 0.4
2018-Jan-02 08:00N 40°39' W 074°02'0 0.1
2018-Jan-02 07:30N 40°39' W 074°02'1 1.9
2018-Jan-02 07:00N 40°39' W 074°03'3 1.4
2018-Jan-02 05:11N 40°39' W 074°07'5 7.6
2018-Jan-02 04:30N 40°41' W 074°01'  
2017-Dec-29 19:22N 40°48' W 073°54'3 7.8
2017-Dec-29 18:57N 40°46' W 073°57'3 6.5
2017-Dec-29 18:30N 40°43' W 073°58'3 5.8
2017-Dec-29 18:00N 40°41' W 074°01'2 3.3
2017-Dec-29 17:30N 40°39' W 074°02'0 0.1
2017-Dec-29 17:00N 40°39' W 074°02'0 0.0
2017-Dec-29 16:26N 40°39' W 074°02'0 0.0
2017-Dec-29 16:00N 40°39' W 074°02'0 0.0
2017-Dec-29 15:30N 40°39' W 074°02'0 0.0
2017-Dec-29 14:59N 40°39' W 074°02'0 0.0
2017-Dec-29 14:29N 40°39' W 074°02'0 0.0
2017-Dec-29 14:00N 40°39' W 074°02'0 0.0
2017-Dec-29 13:30N 40°39' W 074°02'2 3.5
2017-Dec-29 13:00N 40°41' W 074°02'3 5.1
2017-Dec-29 12:30N 40°44' W 074°01'2 4.4
2017-Dec-29 12:00N 40°46' W 074°01'  

Dump ship's entire track history